sensor_id;sensor_type;location;lat;lon;timestamp;pressure;altitude;pressure_sealevel;temperature;humidity
41945;BME280;63122;52.424;13.458;2023-11-21T01:13:31;100302.34;;;7.14;100.00
41945;BME280;63122;52.424;13.458;2023-11-21T01:16:00;100309.50;;;7.12;100.00
41945;BME280;63122;52.424;13.458;2023-11-21T01:18:31;100316.25;;;7.05;100.00
41945;BME280;63122;52.424;13.458;2023-11-21T01:21:14;100314.06;;;7.00;100.00
41945;BME280;63122;52.424;13.458;2023-11-21T01:26:13;100311.97;;;6.94;100.00
41945;BME280;63122;52.424;13.458;2023-11-21T01:29:20;100315.13;;;6.88;100.00
41945;BME280;63122;52.424;13.458;2023-11-21T01:31:48;100322.19;;;6.87;100.00
41945;BME280;63122;52.424;13.458;2023-11-21T01:34:29;100318.44;;;6.90;100.00
41945;BME280;63122;52.424;13.458;2023-11-21T01:37:22;100319.13;;;6.92;100.00
41945;BME280;63122;52.424;13.458;2023-11-21T01:40:26;100328.66;;;6.93;100.00
41945;BME280;63122;52.424;13.458;2023-11-21T01:46:08;100334.06;;;6.91;100.00
41945;BME280;63122;52.424;13.458;2023-11-21T01:48:52;100346.22;;;6.93;100.00
41945;BME280;63122;52.424;13.458;2023-11-21T01:51:26;100334.97;;;6.71;100.00
41945;BME280;63122;52.424;13.458;2023-11-21T01:54:31;100341.69;;;6.54;100.00
41945;BME280;63122;52.424;13.458;2023-11-21T01:57:27;100336.75;;;6.60;100.00
41945;BME280;63122;52.424;13.458;2023-11-21T02:01:03;100341.84;;;6.62;100.00
41945;BME280;63122;52.424;13.458;2023-11-21T02:02:37;100342.94;;;6.50;100.00
41945;BME280;63122;52.424;13.458;2023-11-21T02:07:33;100353.41;;;6.50;100.00
41945;BME280;63122;52.424;13.458;2023-11-21T02:10:27;100354.91;;;6.52;100.00
41945;BME280;63122;52.424;13.458;2023-11-21T02:13:06;100355.63;;;6.54;100.00
41945;BME280;63122;52.424;13.458;2023-11-21T02:15:42;100354.38;;;6.48;100.00
41945;BME280;63122;52.424;13.458;2023-11-21T02:18:52;100356.41;;;6.45;100.00
41945;BME280;63122;52.424;13.458;2023-11-21T02:21:35;100363.84;;;6.40;100.00
41945;BME280;63122;52.424;13.458;2023-11-21T02:24:19;100374.75;;;6.45;100.00
41945;BME280;63122;52.424;13.458;2023-11-21T02:27:02;100364.97;;;6.47;100.00
41945;BME280;63122;52.424;13.458;2023-11-21T02:29:45;100369.91;;;6.40;100.00
41945;BME280;63122;52.424;13.458;2023-11-21T02:33:21;100373.94;;;6.44;100.00
41945;BME280;63122;52.424;13.458;2023-11-21T02:35:09;100373.63;;;6.38;100.00
41945;BME280;63122;52.424;13.458;2023-11-21T02:38:04;100377.13;;;6.48;100.00
41945;BME280;63122;52.424;13.458;2023-11-21T02:40:57;100386.22;;;6.44;100.00
41945;BME280;63122;52.424;13.458;2023-11-21T02:44:01;100379.25;;;6.33;100.00
41945;BME280;63122;52.424;13.458;2023-11-21T02:46:22;100383.97;;;6.39;100.00
41945;BME280;63122;52.424;13.458;2023-11-21T02:49:25;100389.50;;;6.15;100.00
41945;BME280;63122;52.424;13.458;2023-11-21T02:53:34;100390.84;;;6.09;100.00
41945;BME280;63122;52.424;13.458;2023-11-21T02:56:18;100396.16;;;6.19;100.00
41945;BME280;63122;52.424;13.458;2023-11-21T02:59:19;100399.72;;;6.18;100.00
41945;BME280;63122;52.424;13.458;2023-11-21T03:06:01;100394.81;;;6.25;100.00
41945;BME280;63122;52.424;13.458;2023-11-21T03:13:07;100403.31;;;6.17;100.00
41945;BME280;63122;52.424;13.458;2023-11-21T03:15:35;100399.28;;;6.13;100.00
41945;BME280;63122;52.424;13.458;2023-11-21T03:18:18;100405.88;;;6.28;100.00
41945;BME280;63122;52.424;13.458;2023-11-21T03:21:09;100408.72;;;6.25;100.00
41945;BME280;63122;52.424;13.458;2023-11-21T03:24:26;100414.91;;;6.24;100.00
41945;BME280;63122;52.424;13.458;2023-11-21T03:28:11;100421.03;;;6.03;100.00
41945;BME280;63122;52.424;13.458;2023-11-21T03:30:52;100418.00;;;6.08;100.00
41945;BME280;63122;52.424;13.458;2023-11-21T03:33:38;100419.97;;;6.16;100.00
41945;BME280;63122;52.424;13.458;2023-11-21T03:36:28;100419.38;;;6.02;100.00
41945;BME280;63122;52.424;13.458;2023-11-21T03:39:22;100425.75;;;5.98;100.00
41945;BME280;63122;52.424;13.458;2023-11-21T03:41:54;100421.72;;;5.94;100.00
41945;BME280;63122;52.424;13.458;2023-11-21T03:44:43;100431.66;;;5.90;100.00
41945;BME280;63122;52.424;13.458;2023-11-21T03:50:43;100439.00;;;5.97;100.00
41945;BME280;63122;52.424;13.458;2023-11-21T03:53:39;100443.66;;;5.93;100.00
41945;BME280;63122;52.424;13.458;2023-11-21T03:56:23;100450.28;;;5.97;100.00
41945;BME280;63122;52.424;13.458;2023-11-21T03:59:00;100452.09;;;5.97;100.00
41945;BME280;63122;52.424;13.458;2023-11-21T04:01:53;100457.84;;;5.90;100.00
41945;BME280;63122;52.424;13.458;2023-11-21T04:04:24;100454.72;;;5.97;100.00
41945;BME280;63122;52.424;13.458;2023-11-21T04:06:58;100461.97;;;5.93;100.00
41945;BME280;63122;52.424;13.458;2023-11-21T04:09:44;100461.00;;;5.94;100.00
41945;BME280;63122;52.424;13.458;2023-11-21T04:12:13;100461.00;;;6.05;100.00
41945;BME280;63122;52.424;13.458;2023-11-21T04:14:43;100462.22;;;6.01;100.00
41945;BME280;63122;52.424;13.458;2023-11-21T04:17:08;100455.84;;;5.83;100.00
41945;BME280;63122;52.424;13.458;2023-11-21T04:19:35;100467.28;;;5.82;100.00
41945;BME280;63122;52.424;13.458;2023-11-21T04:22:15;100464.31;;;5.75;100.00
41945;BME280;63122;52.424;13.458;2023-11-21T04:24:54;100473.81;;;5.76;100.00
41945;BME280;63122;52.424;13.458;2023-11-21T04:27:48;100475.22;;;5.80;100.00
41945;BME280;63122;52.424;13.458;2023-11-21T04:30:24;100478.94;;;5.78;100.00
41945;BME280;63122;52.424;13.458;2023-11-21T04:32:57;100489.91;;;5.71;100.00
41945;BME280;63122;52.424;13.458;2023-11-21T04:35:09;100487.41;;;5.70;100.00
41945;BME280;63122;52.424;13.458;2023-11-21T04:37:22;100495.53;;;5.67;100.00
41945;BME280;63122;52.424;13.458;2023-11-21T04:42:57;100495.53;;;5.67;100.00
41945;BME280;63122;52.424;13.458;2023-11-21T04:52:42;100493.41;;;5.60;100.00
41945;BME280;63122;52.424;13.458;2023-11-21T04:55:22;100506.00;;;5.67;100.00
41945;BME280;63122;52.424;13.458;2023-11-21T04:58:43;100506.34;;;5.62;100.00
41945;BME280;63122;52.424;13.458;2023-11-21T05:01:05;100510.53;;;5.65;100.00
41945;BME280;63122;52.424;13.458;2023-11-21T05:03:56;100500.41;;;5.60;100.00
41945;BME280;63122;52.424;13.458;2023-11-21T05:06:48;100511.59;;;5.62;100.00
41945;BME280;63122;52.424;13.458;2023-11-21T05:09:02;100521.94;;;5.64;100.00
41945;BME280;63122;52.424;13.458;2023-11-21T05:11:29;100523.16;;;5.59;100.00
41945;BME280;63122;52.424;13.458;2023-11-21T05:20:29;100530.91;;;5.50;100.00
41945;BME280;63122;52.424;13.458;2023-11-21T05:23:28;100532.91;;;5.46;100.00
41945;BME280;63122;52.424;13.458;2023-11-21T05:35:40;100542.91;;;5.41;100.00
41945;BME280;63122;52.424;13.458;2023-11-21T05:39:11;100551.97;;;5.37;100.00
41945;BME280;63122;52.424;13.458;2023-11-21T05:42:45;100562.19;;;5.40;100.00
41945;BME280;63122;52.424;13.458;2023-11-21T05:48:38;100570.63;;;5.32;100.00
41945;BME280;63122;52.424;13.458;2023-11-21T05:52:08;100564.09;;;5.38;100.00
41945;BME280;63122;52.424;13.458;2023-11-21T05:55:11;100572.53;;;5.30;100.00
41945;BME280;63122;52.424;13.458;2023-11-21T05:57:45;100581.09;;;5.32;100.00
41945;BME280;63122;52.424;13.458;2023-11-21T05:59:52;100575.75;;;5.33;100.00
41945;BME280;63122;52.424;13.458;2023-11-21T06:01:56;100585.50;;;5.31;100.00
41945;BME280;63122;52.424;13.458;2023-11-21T06:04:43;100583.59;;;5.33;100.00
41945;BME280;63122;52.424;13.458;2023-11-21T06:06:53;100582.50;;;5.36;100.00
41945;BME280;63122;52.424;13.458;2023-11-21T06:08:52;100585.59;;;5.30;100.00
41945;BME280;63122;52.424;13.458;2023-11-21T06:11:08;100591.69;;;5.30;100.00
41945;BME280;63122;52.424;13.458;2023-11-21T06:13:26;100589.78;;;5.32;100.00
41945;BME280;63122;52.424;13.458;2023-11-21T06:15:24;100589.06;;;5.30;100.00
41945;BME280;63122;52.424;13.458;2023-11-21T06:17:43;100596.19;;;5.28;100.00
41945;BME280;63122;52.424;13.458;2023-11-21T06:20:01;100605.22;;;5.24;100.00
41945;BME280;63122;52.424;13.458;2023-11-21T06:22:17;100617.47;;;5.24;100.00
41945;BME280;63122;52.424;13.458;2023-11-21T06:24:41;100616.53;;;5.25;100.00
41945;BME280;63122;52.424;13.458;2023-11-21T06:26:53;100611.03;;;5.16;100.00
41945;BME280;63122;52.424;13.458;2023-11-21T06:28:53;100616.50;;;5.13;100.00
41945;BME280;63122;52.424;13.458;2023-11-21T06:30:51;100610.91;;;5.18;100.00
41945;BME280;63122;52.424;13.458;2023-11-21T06:33:12;100622.22;;;5.18;100.00
41945;BME280;63122;52.424;13.458;2023-11-21T06:35:22;100628.84;;;5.11;100.00
41945;BME280;63122;52.424;13.458;2023-11-21T06:37:19;100619.34;;;5.10;100.00
41945;BME280;63122;52.424;13.458;2023-11-21T06:39:16;100633.50;;;5.19;100.00
41945;BME280;63122;52.424;13.458;2023-11-21T06:41:14;100636.47;;;5.14;100.00
41945;BME280;63122;52.424;13.458;2023-11-21T06:43:10;100641.69;;;5.14;100.00
41945;BME280;63122;52.424;13.458;2023-11-21T06:45:03;100642.31;;;5.18;100.00
41945;BME280;63122;52.424;13.458;2023-11-21T06:46:59;100642.66;;;5.13;100.00
41945;BME280;63122;52.424;13.458;2023-11-21T06:48:52;100649.53;;;5.14;100.00
41945;BME280;63122;52.424;13.458;2023-11-21T06:50:50;100648.00;;;5.23;100.00
41945;BME280;63122;52.424;13.458;2023-11-21T06:52:46;100654.56;;;5.29;100.00
41945;BME280;63122;52.424;13.458;2023-11-21T06:54:41;100655.50;;;5.16;100.00
41945;BME280;63122;52.424;13.458;2023-11-21T06:56:40;100655.00;;;5.11;100.00
41945;BME280;63122;52.424;13.458;2023-11-21T06:58:36;100661.91;;;5.12;100.00
41945;BME280;63122;52.424;13.458;2023-11-21T07:00:31;100652.63;;;5.08;100.00
41945;BME280;63122;52.424;13.458;2023-11-21T07:02:27;100660.00;;;5.03;100.00
41945;BME280;63122;52.424;13.458;2023-11-21T07:04:20;100654.03;;;5.01;100.00
41945;BME280;63122;52.424;13.458;2023-11-21T07:06:19;100658.72;;;5.09;100.00
41945;BME280;63122;52.424;13.458;2023-11-21T07:08:14;100663.94;;;5.09;100.00
41945;BME280;63122;52.424;13.458;2023-11-21T07:10:10;100662.38;;;5.06;100.00
41945;BME280;63122;52.424;13.458;2023-11-21T07:12:06;100663.22;;;5.07;100.00
41945;BME280;63122;52.424;13.458;2023-11-21T07:14:02;100665.13;;;5.04;100.00
41945;BME280;63122;52.424;13.458;2023-11-21T07:15:59;100665.84;;;5.07;100.00
41945;BME280;63122;52.424;13.458;2023-11-21T07:17:59;100670.59;;;5.13;100.00
41945;BME280;63122;52.424;13.458;2023-11-21T07:19:57;100667.38;;;5.09;100.00
41945;BME280;63122;52.424;13.458;2023-11-21T07:22:08;100666.41;;;5.10;100.00
41945;BME280;63122;52.424;13.458;2023-11-21T07:24:16;100675.22;;;5.09;100.00
41945;BME280;63122;52.424;13.458;2023-11-21T07:26:24;100677.84;;;5.09;100.00
41945;BME280;63122;52.424;13.458;2023-11-21T07:31:14;100682.81;;;5.12;100.00
41945;BME280;63122;52.424;13.458;2023-11-21T07:33:43;100690.09;;;5.09;100.00
41945;BME280;63122;52.424;13.458;2023-11-21T07:35:50;100685.09;;;5.06;100.00
41945;BME280;63122;52.424;13.458;2023-11-21T07:38:03;100688.03;;;5.01;100.00
41945;BME280;63122;52.424;13.458;2023-11-21T07:39:59;100692.69;;;5.09;100.00
41945;BME280;63122;52.424;13.458;2023-11-21T07:41:56;100699.03;;;5.17;100.00
41945;BME280;63122;52.424;13.458;2023-11-21T07:43:52;100698.88;;;5.08;100.00
41945;BME280;63122;52.424;13.458;2023-11-21T07:45:46;100684.13;;;5.07;100.00
41945;BME280;63122;52.424;13.458;2023-11-21T07:47:42;100696.38;;;5.06;100.00
41945;BME280;63122;52.424;13.458;2023-11-21T07:49:40;100698.88;;;5.08;100.00
41945;BME280;63122;52.424;13.458;2023-11-21T07:51:37;100694.59;;;5.07;100.00
41945;BME280;63122;52.424;13.458;2023-11-21T07:53:36;100703.25;;;5.07;100.00
41945;BME280;63122;52.424;13.458;2023-11-21T07:55:32;100695.16;;;4.99;100.00
41945;BME280;63122;52.424;13.458;2023-11-21T07:57:29;100699.94;;;5.05;100.00
41945;BME280;63122;52.424;13.458;2023-11-21T07:59:25;100706.22;;;5.02;100.00
41945;BME280;63122;52.424;13.458;2023-11-21T08:01:20;100710.53;;;5.03;100.00
41945;BME280;63122;52.424;13.458;2023-11-21T08:03:16;100709.78;;;5.01;100.00
41945;BME280;63122;52.424;13.458;2023-11-21T08:05:12;100713.84;;;5.06;100.00
41945;BME280;63122;52.424;13.458;2023-11-21T08:07:17;100718.00;;;5.08;100.00
41945;BME280;63122;52.424;13.458;2023-11-21T08:09:15;100722.41;;;5.08;100.00
41945;BME280;63122;52.424;13.458;2023-11-21T08:11:12;100728.38;;;5.10;100.00
41945;BME280;63122;52.424;13.458;2023-11-21T08:13:05;100735.09;;;5.01;100.00
41945;BME280;63122;52.424;13.458;2023-11-21T08:15:03;100738.06;;;4.96;100.00
41945;BME280;63122;52.424;13.458;2023-11-21T08:17:00;100738.44;;;5.03;100.00
41945;BME280;63122;52.424;13.458;2023-11-21T08:18:58;100739.38;;;5.02;100.00
41945;BME280;63122;52.424;13.458;2023-11-21T08:20:56;100735.34;;;4.98;100.00
41945;BME280;63122;52.424;13.458;2023-11-21T08:22:52;100739.63;;;4.99;100.00
41945;BME280;63122;52.424;13.458;2023-11-21T08:24:55;100739.38;;;5.02;100.00
41945;BME280;63122;52.424;13.458;2023-11-21T08:26:54;100747.47;;;4.99;100.00
41945;BME280;63122;52.424;13.458;2023-11-21T08:28:51;100746.84;;;4.95;100.00
41945;BME280;63122;52.424;13.458;2023-11-21T08:30:50;100741.59;;;4.95;100.00
41945;BME280;63122;52.424;13.458;2023-11-21T08:32:47;100739.72;;;4.97;100.00
41945;BME280;63122;52.424;13.458;2023-11-21T08:34:41;100739.13;;;4.94;100.00
41945;BME280;63122;52.424;13.458;2023-11-21T08:36:42;100743.28;;;4.96;100.00
41945;BME280;63122;52.424;13.458;2023-11-21T08:38:39;100749.34;;;4.97;100.00
41945;BME280;63122;52.424;13.458;2023-11-21T08:40:40;100743.19;;;4.98;100.00
41945;BME280;63122;52.424;13.458;2023-11-21T08:42:33;100749.34;;;4.97;100.00
41945;BME280;63122;52.424;13.458;2023-11-21T08:44:30;100754.34;;;5.00;100.00
41945;BME280;63122;52.424;13.458;2023-11-21T08:46:26;100757.47;;;5.05;100.00
41945;BME280;63122;52.424;13.458;2023-11-21T08:48:21;100761.75;;;5.06;100.00
41945;BME280;63122;52.424;13.458;2023-11-21T08:50:20;100757.78;;;5.00;100.00
41945;BME280;63122;52.424;13.458;2023-11-21T08:52:16;100761.34;;;4.99;100.00
41945;BME280;63122;52.424;13.458;2023-11-21T08:54:10;100755.31;;;4.99;100.00
41945;BME280;63122;52.424;13.458;2023-11-21T08:56:12;100761.03;;;5.04;100.00
41945;BME280;63122;52.424;13.458;2023-11-21T08:58:10;100771.09;;;4.97;100.00
41945;BME280;63122;52.424;13.458;2023-11-21T09:00:07;100771.94;;;4.98;100.00
41945;BME280;63122;52.424;13.458;2023-11-21T09:02:04;100773.94;;;4.94;100.00
41945;BME280;63122;52.424;13.458;2023-11-21T09:04:04;100775.09;;;4.90;100.00
41945;BME280;63122;52.424;13.458;2023-11-21T09:07:07;100773.69;;;4.97;100.00
41945;BME280;63122;52.424;13.458;2023-11-21T09:09:41;100781.28;;;4.89;100.00
41945;BME280;63122;52.424;13.458;2023-11-21T09:11:50;100782.94;;;4.90;100.00
41945;BME280;63122;52.424;13.458;2023-11-21T09:14:25;100787.94;;;4.93;100.00
41945;BME280;63122;52.424;13.458;2023-11-21T09:16:21;100795.94;;;4.92;100.00
41945;BME280;63122;52.424;13.458;2023-11-21T09:18:17;100799.91;;;4.84;100.00
41945;BME280;63122;52.424;13.458;2023-11-21T09:20:13;100806.94;;;4.84;100.00
41945;BME280;63122;52.424;13.458;2023-11-21T09:22:09;100808.38;;;4.88;100.00
41945;BME280;63122;52.424;13.458;2023-11-21T09:24:02;100815.38;;;4.87;100.00
41945;BME280;63122;52.424;13.458;2023-11-21T09:25:58;100822.06;;;4.92;100.00
41945;BME280;63122;52.424;13.458;2023-11-21T09:27:56;100824.06;;;4.88;100.00
41945;BME280;63122;52.424;13.458;2023-11-21T09:29:52;100819.16;;;4.83;100.00
41945;BME280;63122;52.424;13.458;2023-11-21T09:31:48;100819.16;;;4.83;100.00
41945;BME280;63122;52.424;13.458;2023-11-21T09:33:44;100830.56;;;4.82;100.00
41945;BME280;63122;52.424;13.458;2023-11-21T09:35:40;100824.16;;;4.86;100.00
41945;BME280;63122;52.424;13.458;2023-11-21T09:37:33;100839.47;;;4.80;100.00
41945;BME280;63122;52.424;13.458;2023-11-21T09:39:30;100834.56;;;4.75;100.00
41945;BME280;63122;52.424;13.458;2023-11-21T09:41:34;100833.50;;;4.78;100.00
41945;BME280;63122;52.424;13.458;2023-11-21T09:44:22;100834.13;;;4.81;100.00
41945;BME280;63122;52.424;13.458;2023-11-21T09:47:38;100833.72;;;4.74;100.00
41945;BME280;63122;52.424;13.458;2023-11-21T09:50:10;100837.06;;;4.77;100.00
41945;BME280;63122;52.424;13.458;2023-11-21T09:56:01;100840.41;;;4.79;100.00
41945;BME280;63122;52.424;13.458;2023-11-21T10:03:09;100846.63;;;4.89;100.00
41945;BME280;63122;52.424;13.458;2023-11-21T10:05:53;100858.75;;;4.90;100.00
41945;BME280;63122;52.424;13.458;2023-11-21T10:07:53;100856.06;;;4.92;100.00
41945;BME280;63122;52.424;13.458;2023-11-21T10:09:55;100853.94;;;4.97;100.00
41945;BME280;63122;52.424;13.458;2023-11-21T10:11:53;100854.88;;;4.96;100.00
41945;BME280;63122;52.424;13.458;2023-11-21T10:15:01;100846.31;;;4.94;100.00
41945;BME280;63122;52.424;13.458;2023-11-21T10:16:59;100850.09;;;4.89;100.00
41945;BME280;63122;52.424;13.458;2023-11-21T10:19:01;100850.59;;;4.95;100.00
41945;BME280;63122;52.424;13.458;2023-11-21T10:21:03;100845.25;;;4.96;100.00
41945;BME280;63122;52.424;13.458;2023-11-21T10:23:00;100856.19;;;5.01;100.00
41945;BME280;63122;52.424;13.458;2023-11-21T10:24:55;100856.44;;;4.98;100.00
41945;BME280;63122;52.424;13.458;2023-11-21T10:26:54;100853.22;;;4.95;100.00
41945;BME280;63122;52.424;13.458;2023-11-21T10:28:57;100856.06;;;4.92;100.00
41945;BME280;63122;52.424;13.458;2023-11-21T10:31:00;100860.34;;;4.93;100.00
41945;BME280;63122;52.424;13.458;2023-11-21T10:33:00;100861.28;;;4.92;100.00
41945;BME280;63122;52.424;13.458;2023-11-21T10:35:05;100861.69;;;4.85;100.00
41945;BME280;63122;52.424;13.458;2023-11-21T10:39:39;100866.66;;;4.77;100.00
41945;BME280;63122;52.424;13.458;2023-11-21T10:41:43;100860.38;;;4.80;100.00
41945;BME280;63122;52.424;13.458;2023-11-21T10:44:41;100878.13;;;4.74;100.00
41945;BME280;63122;52.424;13.458;2023-11-21T10:47:38;100878.91;;;4.77;100.00
41945;BME280;63122;52.424;13.458;2023-11-21T10:49:53;100883.50;;;4.73;100.00
41945;BME280;63122;52.424;13.458;2023-11-21T10:59:42;100881.16;;;4.81;100.00
41945;BME280;63122;52.424;13.458;2023-11-21T11:02:38;100881.06;;;4.83;100.00
41945;BME280;63122;52.424;13.458;2023-11-21T11:04:34;100884.72;;;4.80;100.00
41945;BME280;63122;52.424;13.458;2023-11-21T11:06:31;100891.31;;;4.86;100.00
41945;BME280;63122;52.424;13.458;2023-11-21T11:08:35;100888.56;;;4.87;100.00
41945;BME280;63122;52.424;13.458;2023-11-21T11:21:07;100893.31;;;4.69;100.00
41945;BME280;63122;52.424;13.458;2023-11-21T11:23:27;100901.88;;;4.71;100.00
41945;BME280;63122;52.424;13.458;2023-11-21T11:26:16;100899.91;;;4.75;100.00
41945;BME280;63122;52.424;13.458;2023-11-21T11:29:08;100910.78;;;4.82;100.00
41945;BME280;63122;52.424;13.458;2023-11-21T11:32:20;100915.06;;;4.70;100.00
41945;BME280;63122;52.424;13.458;2023-11-21T11:34:32;100918.00;;;4.65;100.00
41945;BME280;63122;52.424;13.458;2023-11-21T11:36:55;100925.75;;;4.67;100.00
41945;BME280;63122;52.424;13.458;2023-11-21T11:42:27;100931.19;;;4.64;100.00
41945;BME280;63122;52.424;13.458;2023-11-21T11:44:51;100928.16;;;4.57;100.00
41945;BME280;63122;52.424;13.458;2023-11-21T11:47:35;100940.69;;;4.65;100.00
41945;BME280;63122;52.424;13.458;2023-11-21T11:52:34;100950.50;;;4.61;100.00
41945;BME280;63122;52.424;13.458;2023-11-21T11:54:35;100952.81;;;4.66;100.00
41945;BME280;63122;52.424;13.458;2023-11-21T11:56:52;100962.56;;;4.64;100.00
41945;BME280;63122;52.424;13.458;2023-11-21T11:59:07;100970.16;;;4.67;100.00
41945;BME280;63122;52.424;13.458;2023-11-21T12:01:31;100968.59;;;4.64;100.00
41945;BME280;63122;52.424;13.458;2023-11-21T12:07:13;100976.00;;;4.57;100.00
41945;BME280;63122;52.424;13.458;2023-11-21T12:09:26;100978.31;;;4.49;100.00
41945;BME280;63122;52.424;13.458;2023-11-21T12:15:00;100983.34;;;4.52;100.00
41945;BME280;63122;52.424;13.458;2023-11-21T12:17:58;100992.13;;;4.64;100.00
41945;BME280;63122;52.424;13.458;2023-11-21T12:20:56;101004.25;;;4.65;100.00
41945;BME280;63122;52.424;13.458;2023-11-21T12:23:13;100997.03;;;4.56;100.00
41945;BME280;63122;52.424;13.458;2023-11-21T12:25:28;100991.91;;;4.54;100.00
41945;BME280;63122;52.424;13.458;2023-11-21T12:27:42;100995.97;;;4.58;100.00
41945;BME280;63122;52.424;13.458;2023-11-21T12:29:42;101006.25;;;4.61;100.00
41945;BME280;63122;52.424;13.458;2023-11-21T12:31:49;101000.69;;;4.53;100.00
41945;BME280;63122;52.424;13.458;2023-11-21T12:49:59;101025.47;;;4.47;100.00
41945;BME280;63122;52.424;13.458;2023-11-21T13:09:22;101045.75;;;4.83;100.00
41945;BME280;63122;52.424;13.458;2023-11-21T13:30:12;101060.06;;;4.90;100.00
41945;BME280;63122;52.424;13.458;2023-11-21T13:47:40;101078.09;;;4.41;100.00
41945;BME280;63122;52.424;13.458;2023-11-21T13:53:12;101086.75;;;4.29;100.00
41945;BME280;63122;52.424;13.458;2023-11-21T13:58:33;101093.84;;;4.27;100.00
41945;BME280;63122;52.424;13.458;2023-11-21T14:03:16;101104.41;;;4.25;100.00
41945;BME280;63122;52.424;13.458;2023-11-21T14:22:27;101142.38;;;4.44;100.00
41945;BME280;63122;52.424;13.458;2023-11-21T14:25:54;101146.28;;;4.24;100.00
41945;BME280;63122;52.424;13.458;2023-11-21T14:28:54;101161.31;;;4.20;100.00
41945;BME280;63122;52.424;13.458;2023-11-21T14:31:38;101162.09;;;4.08;100.00
41945;BME280;63122;52.424;13.458;2023-11-21T14:34:32;101171.53;;;3.96;100.00
41945;BME280;63122;52.424;13.458;2023-11-21T14:53:27;101168.94;;;3.81;100.00
41945;BME280;63122;52.424;13.458;2023-11-21T15:22:56;101234.00;;;3.55;100.00
41945;BME280;63122;52.424;13.458;2023-11-21T15:24:54;101243.31;;;3.59;100.00
41945;BME280;63122;52.424;13.458;2023-11-21T15:27:59;101241.63;;;3.58;100.00
41945;BME280;63122;52.424;13.458;2023-11-21T15:30:52;101247.50;;;3.48;100.00
41945;BME280;63122;52.424;13.458;2023-11-21T15:33:26;101251.69;;;3.50;100.00
41945;BME280;63122;52.424;13.458;2023-11-21T15:36:08;101253.56;;;3.48;100.00
41945;BME280;63122;52.424;13.458;2023-11-21T15:38:30;101256.16;;;3.48;100.00
41945;BME280;63122;52.424;13.458;2023-11-21T15:40:30;101258.31;;;3.56;100.00
41945;BME280;63122;52.424;13.458;2023-11-21T15:43:12;101253.84;;;3.58;100.00
41945;BME280;63122;52.424;13.458;2023-11-21T15:45:14;101265.13;;;3.58;100.00
41945;BME280;63122;52.424;13.458;2023-11-21T15:47:16;101265.88;;;3.60;100.00
41945;BME280;63122;52.424;13.458;2023-11-21T15:49:20;101271.00;;;3.62;100.00
41945;BME280;63122;52.424;13.458;2023-11-21T15:52:04;101261.38;;;3.63;100.00
41945;BME280;63122;52.424;13.458;2023-11-21T15:54:22;101266.59;;;3.63;100.00
41945;BME280;63122;52.424;13.458;2023-11-21T15:56:53;101266.91;;;3.58;100.00
41945;BME280;63122;52.424;13.458;2023-11-21T15:59:30;101277.41;;;3.56;100.00
41945;BME280;63122;52.424;13.458;2023-11-21T16:04:42;101275.84;;;3.54;100.00
41945;BME280;63122;52.424;13.458;2023-11-21T16:08:03;101298.72;;;3.49;100.00
41945;BME280;63122;52.424;13.458;2023-11-21T16:13:14;101304.31;;;3.42;100.00
41945;BME280;63122;52.424;13.458;2023-11-21T16:15:28;101301.31;;;3.34;100.00
41945;BME280;63122;52.424;13.458;2023-11-21T16:17:24;101312.13;;;3.28;100.00
41945;BME280;63122;52.424;13.458;2023-11-21T16:19:16;101309.75;;;3.23;100.00
41945;BME280;63122;52.424;13.458;2023-11-21T16:21:12;101313.13;;;3.25;100.00
41945;BME280;63122;52.424;13.458;2023-11-21T16:23:08;101319.09;;;3.27;100.00
41945;BME280;63122;52.424;13.458;2023-11-21T16:25:00;101324.41;;;3.26;100.00
41945;BME280;63122;52.424;13.458;2023-11-21T16:26:56;101334.09;;;3.24;100.00
41945;BME280;63122;52.424;13.458;2023-11-21T16:28:54;101332.25;;;3.10;100.00
41945;BME280;63122;52.424;13.458;2023-11-21T16:30:50;101335.19;;;3.03;100.00
41945;BME280;63122;52.424;13.458;2023-11-21T16:33:02;101338.41;;;3.09;100.00
41945;BME280;63122;52.424;13.458;2023-11-21T16:35:45;101350.50;;;3.10;100.00
41945;BME280;63122;52.424;13.458;2023-11-21T16:37:58;101347.16;;;3.08;100.00
41945;BME280;63122;52.424;13.458;2023-11-21T16:45:17;101359.00;;;2.97;100.00
41945;BME280;63122;52.424;13.458;2023-11-21T17:07:14;101386.09;;;3.41;100.00
41945;BME280;63122;52.424;13.458;2023-11-21T17:09:16;101394.28;;;3.35;100.00
41945;BME280;63122;52.424;13.458;2023-11-21T17:11:12;101399.69;;;3.32;100.00
41945;BME280;63122;52.424;13.458;2023-11-21T17:13:15;101400.69;;;3.29;100.00
41945;BME280;63122;52.424;13.458;2023-11-21T17:15:13;101401.72;;;3.27;100.00
41945;BME280;63122;52.424;13.458;2023-11-21T17:17:14;101406.41;;;3.20;100.00
41945;BME280;63122;52.424;13.458;2023-11-21T17:19:11;101412.56;;;3.19;100.00
41945;BME280;63122;52.424;13.458;2023-11-21T17:21:08;101413.84;;;3.12;100.00
41945;BME280;63122;52.424;13.458;2023-11-21T17:23:20;101429.03;;;3.20;100.00
41945;BME280;63122;52.424;13.458;2023-11-21T17:25:17;101420.91;;;3.10;100.00
41945;BME280;63122;52.424;13.458;2023-11-21T17:27:13;101429.72;;;3.07;100.00
41945;BME280;63122;52.424;13.458;2023-11-21T17:29:10;101432.25;;;3.09;100.00
41945;BME280;63122;52.424;13.458;2023-11-21T17:31:08;101438.13;;;3.12;100.00
41945;BME280;63122;52.424;13.458;2023-11-21T17:33:06;101435.09;;;3.04;100.00
41945;BME280;63122;52.424;13.458;2023-11-21T17:35:03;101444.09;;;2.98;100.00